Time;durP1;ratioP1;P1;durP2;ratioP2;P2;SDS_P1;SDS_P2;PMS_P1;PMS_P2;Temp;Humidity;BMP_temperature;BMP_pressure;BME280_temperature;BME280_humidity;BME280_pressure;Samples;Min_cycle;Max_cycle;Signal;HPM_P1;HPM_P2
2023/05/28 00:01:03;;;;;;;;;4.25;3.00;;;;;;;;5054778;28;45323;-62
2023/05/28 00:03:31;;;;;;;;;4.00;4.00;;;;;;;;5054831;28;45712;-63
2023/05/28 00:05:56;;;;;;;;;8.25;4.25;;;;;;;;5054740;28;45504;-63
2023/05/28 00:08:22;;;;;;;;;6.75;4.25;;;;;;;;5053094;28;45412;-62
2023/05/28 00:10:48;;;;;;;;;6.00;4.75;;;;;;;;5054710;28;45320;-64
2023/05/28 00:13:13;;;;;;;;;6.00;6.00;;;;;;;;5054332;28;45905;-63
2023/05/28 00:15:38;;;;;;;;;5.00;5.00;;;;;;;;5053477;28;45394;-63
2023/05/28 00:18:04;;;;;;;;;5.75;5.75;;;;;;;;5054571;28;45296;-62
2023/05/28 00:20:29;;;;;;;;;5.00;4.75;;;;;;;;5054508;28;45435;-62
2023/05/28 00:22:55;;;;;;;;;5.00;4.50;;;;;;;;5054290;28;45363;-63
2023/05/28 00:25:20;;;;;;;;;5.25;4.25;;;;;;;;5054593;28;45347;-63
2023/05/28 00:27:45;;;;;;;;;7.00;4.50;;;;;;;;5054463;28;45302;-63
2023/05/28 00:30:11;;;;;;;;;4.75;1.50;;;;;;;;5054443;28;45438;-63
2023/05/28 00:32:36;;;;;;;;;5.25;4.00;;;;;;;;5052834;28;47586;-63
2023/05/28 00:35:01;;;;;;;;;5.75;5.75;;;;;;;;5053847;28;45331;-63
2023/05/28 00:37:27;;;;;;;;;8.50;6.25;;;;;;;;5054235;28;45389;-63
2023/05/28 00:39:52;;;;;;;;;5.00;3.50;;;;;;;;5054460;28;45308;-62
2023/05/28 00:42:17;;;;;;;;;5.25;5.00;;;;;;;;5054127;28;46227;-63
2023/05/28 00:44:43;;;;;;;;;4.00;4.00;;;;;;;;5055586;28;45231;-63
2023/05/28 00:47:09;;;;;;;;;7.75;6.75;;;;;;;;5057633;28;45748;-63
2023/05/28 00:49:34;;;;;;;;;8.25;5.00;;;;;;;;5056078;28;45442;-63
2023/05/28 00:52:00;;;;;;;;;6.25;6.25;;;;;;;;5055630;28;46200;-62
2023/05/28 00:54:27;;;;;;;;;7.75;7.25;;;;;;;;5056909;28;45977;-63
2023/05/28 00:56:53;;;;;;;;;8.50;5.25;;;;;;;;5057122;28;45379;-63
2023/05/28 00:59:18;;;;;;;;;8.00;6.25;;;;;;;;5057068;28;45396;-63
2023/05/28 01:01:43;;;;;;;;;10.00;6.75;;;;;;;;5057146;28;46411;-63
2023/05/28 01:04:08;;;;;;;;;8.75;3.25;;;;;;;;5057085;28;45414;-63
2023/05/28 01:06:37;;;;;;;;;6.75;5.50;;;;;;;;5057414;28;45426;-63
2023/05/28 01:09:03;;;;;;;;;5.00;5.00;;;;;;;;5057185;28;45546;-63
2023/05/28 01:11:28;;;;;;;;;10.75;6.75;;;;;;;;5056586;28;45806;-63
2023/05/28 01:13:54;;;;;;;;;8.00;7.25;;;;;;;;5056875;28;45370;-63
2023/05/28 01:16:20;;;;;;;;;7.75;4.75;;;;;;;;5057285;28;45450;-63
2023/05/28 01:18:46;;;;;;;;;6.25;4.00;;;;;;;;5057148;28;45454;-63
2023/05/28 01:21:12;;;;;;;;;4.00;4.00;;;;;;;;5056735;28;45997;-63
2023/05/28 01:23:40;;;;;;;;;9.25;7.75;;;;;;;;5057176;28;45448;-63
2023/05/28 01:26:05;;;;;;;;;8.25;5.75;;;;;;;;5056749;28;45397;-63
2023/05/28 01:28:31;;;;;;;;;14.75;8.50;;;;;;;;5056709;28;45331;-63
2023/05/28 01:30:56;;;;;;;;;7.25;7.25;;;;;;;;5056811;28;45668;-63
2023/05/28 01:33:22;;;;;;;;;9.00;9.00;;;;;;;;5056484;28;45378;-63
2023/05/28 01:35:49;;;;;;;;;5.00;4.50;;;;;;;;5056941;28;45178;-63
2023/05/28 01:38:15;;;;;;;;;7.00;7.00;;;;;;;;5056827;28;45604;-63
2023/05/28 01:40:44;;;;;;;;;6.75;6.75;;;;;;;;5056288;28;45421;-63
2023/05/28 01:43:10;;;;;;;;;6.75;6.75;;;;;;;;5056748;28;45433;-63
2023/05/28 01:45:35;;;;;;;;;8.75;6.00;;;;;;;;5055230;28;45323;-63
2023/05/28 01:48:01;;;;;;;;;9.75;8.00;;;;;;;;5056805;27;45372;-63
2023/05/28 01:50:27;;;;;;;;;8.50;7.50;;;;;;;;5056464;28;47079;-63
2023/05/28 01:52:52;;;;;;;;;9.50;8.75;;;;;;;;5056370;28;45402;-63
2023/05/28 01:55:17;;;;;;;;;9.50;8.25;;;;;;;;5056204;28;45383;-63
2023/05/28 01:57:43;;;;;;;;;7.25;7.25;;;;;;;;5056649;28;45369;-63
2023/05/28 02:00:09;;;;;;;;;7.75;7.00;;;;;;;;5056087;28;47213;-63
2023/05/28 02:02:35;;;;;;;;;9.50;8.00;;;;;;;;5056360;28;45506;-63
2023/05/28 02:05:01;;;;;;;;;10.00;7.50;;;;;;;;5056224;28;45411;-63
2023/05/28 02:07:26;;;;;;;;;9.00;8.25;;;;;;;;5054984;28;45588;-63
2023/05/28 02:09:51;;;;;;;;;10.75;9.50;;;;;;;;5055966;28;45586;-63
2023/05/28 02:12:16;;;;;;;;;7.25;7.25;;;;;;;;5056361;28;45476;-63
2023/05/28 02:14:42;;;;;;;;;9.25;8.25;;;;;;;;5055049;28;45452;-63
2023/05/28 02:17:08;;;;;;;;;10.00;8.50;;;;;;;;5056242;28;45376;-63
2023/05/28 02:19:34;;;;;;;;;7.00;7.00;;;;;;;;5056103;28;45535;-63
2023/05/28 02:21:59;;;;;;;;;8.25;7.25;;;;;;;;5055854;28;45474;-63
2023/05/28 02:24:24;;;;;;;;;10.00;8.25;;;;;;;;5055761;28;45494;-63
2023/05/28 02:26:50;;;;;;;;;6.75;6.75;;;;;;;;5056050;28;45420;-63
2023/05/28 02:29:15;;;;;;;;;9.25;8.00;;;;;;;;5055646;28;47123;-63
2023/05/28 02:31:40;;;;;;;;;7.25;6.50;;;;;;;;5054889;28;45916;-63
2023/05/28 02:34:07;;;;;;;;;10.50;8.00;;;;;;;;5054447;28;45358;-63
2023/05/28 02:36:32;;;;;;;;;8.00;8.00;;;;;;;;5055824;28;45513;-63
2023/05/28 02:38:58;;;;;;;;;13.75;7.25;;;;;;;;5055100;28;46531;-63
2023/05/28 02:41:23;;;;;;;;;8.25;8.00;;;;;;;;5055578;28;45307;-63
2023/05/28 02:43:48;;;;;;;;;8.25;8.00;;;;;;;;5056006;28;45260;-63
2023/05/28 02:46:13;;;;;;;;;9.75;8.50;;;;;;;;5055745;28;45421;-62
2023/05/28 02:48:39;;;;;;;;;10.50;8.50;;;;;;;;5055516;28;47028;-63
2023/05/28 02:51:04;;;;;;;;;6.25;6.25;;;;;;;;5055858;28;45403;-63
2023/05/28 02:53:33;;;;;;;;;9.00;8.75;;;;;;;;5055151;28;45427;-63
2023/05/28 02:55:59;;;;;;;;;7.25;7.25;;;;;;;;5055737;28;45366;-63
2023/05/28 02:58:24;;;;;;;;;9.50;8.50;;;;;;;;5055196;28;45725;-63
2023/05/28 03:00:49;;;;;;;;;9.75;5.50;;;;;;;;5037075;28;45262;-63
2023/05/28 03:03:15;;;;;;;;;7.75;6.25;;;;;;;;5054430;28;45528;-63
2023/05/28 03:05:40;;;;;;;;;5.00;5.00;;;;;;;;5054702;28;45491;-63
2023/05/28 03:08:06;;;;;;;;;8.25;7.75;;;;;;;;5054805;28;46355;-63
2023/05/28 03:10:31;;;;;;;;;8.25;8.25;;;;;;;;5055212;28;45451;-63
2023/05/28 03:12:56;;;;;;;;;10.25;8.50;;;;;;;;5055483;28;45390;-63
2023/05/28 03:15:21;;;;;;;;;9.00;6.00;;;;;;;;5055286;28;45315;-63
2023/05/28 03:17:46;;;;;;;;;8.00;8.00;;;;;;;;5055071;28;45394;-63
2023/05/28 03:20:12;;;;;;;;;9.50;9.25;;;;;;;;5054876;28;45647;-63
2023/05/28 03:22:37;;;;;;;;;11.50;8.75;;;;;;;;5054944;28;45351;-63
2023/05/28 03:25:03;;;;;;;;;11.25;9.50;;;;;;;;5055006;28;45539;-63
2023/05/28 03:27:28;;;;;;;;;11.00;9.75;;;;;;;;5055044;28;46865;-63
2023/05/28 03:29:53;;;;;;;;;14.25;10.00;;;;;;;;5055157;28;45637;-63
2023/05/28 03:32:19;;;;;;;;;18.50;12.50;;;;;;;;5054698;28;45641;-63
2023/05/28 03:34:44;;;;;;;;;2.00;2.00;;;;;;;;5055261;28;45511;-63
2023/05/28 03:37:09;;;;;;;;;10.75;9.50;;;;;;;;5054464;28;46134;-62
2023/05/28 03:39:34;;;;;;;;;13.25;9.50;;;;;;;;5055037;28;45491;-63
2023/05/28 03:41:59;;;;;;;;;12.25;9.00;;;;;;;;5054849;28;45401;-63
2023/05/28 03:44:25;;;;;;;;;11.00;9.50;;;;;;;;5054541;28;45526;-63
2023/05/28 03:46:50;;;;;;;;;9.50;8.75;;;;;;;;5054516;28;47451;-63
2023/05/28 03:49:15;;;;;;;;;16.50;11.00;;;;;;;;5054597;28;45389;-63
2023/05/28 03:51:40;;;;;;;;;11.50;10.25;;;;;;;;5054914;28;45399;-63
2023/05/28 03:54:06;;;;;;;;;8.25;8.00;;;;;;;;5054675;28;45486;-63
2023/05/28 03:56:33;;;;;;;;;13.50;12.00;;;;;;;;5054392;28;47302;-63
2023/05/28 03:58:58;;;;;;;;;11.00;9.25;;;;;;;;5054854;28;45414;-63
2023/05/28 04:01:24;;;;;;;;;12.75;12.25;;;;;;;;5054698;28;45481;-62
2023/05/28 04:03:49;;;;;;;;;15.50;13.25;;;;;;;;5054930;28;45393;-62
2023/05/28 04:06:14;;;;;;;;;15.25;12.75;;;;;;;;5054410;28;45470;-62
2023/05/28 04:08:40;;;;;;;;;16.75;11.50;;;;;;;;5054470;28;45364;-63
2023/05/28 04:11:05;;;;;;;;;10.25;10.25;;;;;;;;5054678;28;45400;-63
2023/05/28 04:13:30;;;;;;;;;9.75;9.75;;;;;;;;5054663;28;45538;-62
2023/05/28 04:15:55;;;;;;;;;13.00;12.00;;;;;;;;5054570;28;46478;-63
2023/05/28 04:18:21;;;;;;;;;12.00;10.50;;;;;;;;5055114;28;45361;-63
2023/05/28 04:20:46;;;;;;;;;16.50;15.00;;;;;;;;5057775;28;45354;-63
2023/05/28 04:23:11;;;;;;;;;13.25;12.75;;;;;;;;5058279;28;45295;-63
2023/05/28 04:25:36;;;;;;;;;12.00;10.00;;;;;;;;5057546;28;46278;-63
2023/05/28 04:28:02;;;;;;;;;13.25;10.25;;;;;;;;5057504;28;45363;-62
2023/05/28 04:30:27;;;;;;;;;10.25;10.00;;;;;;;;5057664;28;45421;-63
2023/05/28 04:32:52;;;;;;;;;15.25;14.00;;;;;;;;5057728;28;45432;-63
2023/05/28 04:35:18;;;;;;;;;11.75;10.50;;;;;;;;5057236;28;45992;-62
2023/05/28 04:37:44;;;;;;;;;17.75;14.00;;;;;;;;5057578;28;45386;-63
2023/05/28 04:40:11;;;;;;;;;20.00;12.25;;;;;;;;5057599;28;45307;-63
2023/05/28 04:42:37;;;;;;;;;13.25;11.75;;;;;;;;5057496;28;45397;-63
2023/05/28 04:45:03;;;;;;;;;12.50;10.50;;;;;;;;5057221;28;45461;-62
2023/05/28 04:47:28;;;;;;;;;15.75;14.50;;;;;;;;5057426;28;45502;-63
2023/05/28 04:49:53;;;;;;;;;14.25;11.25;;;;;;;;5057380;28;45416;-63
2023/05/28 04:52:18;;;;;;;;;8.50;6.50;;;;;;;;5057874;28;45561;-63
2023/05/28 04:54:44;;;;;;;;;12.25;10.50;;;;;;;;5057137;28;46983;-63
2023/05/28 04:57:10;;;;;;;;;17.75;12.75;;;;;;;;5057354;28;45372;-63
2023/05/28 04:59:35;;;;;;;;;12.75;11.00;;;;;;;;5056334;28;45411;-63
2023/05/28 05:02:00;;;;;;;;;12.50;12.50;;;;;;;;5056003;28;45395;-62
2023/05/28 05:04:25;;;;;;;;;11.75;10.50;;;;;;;;5057108;28;45482;-62
2023/05/28 05:06:51;;;;;;;;;11.50;11.00;;;;;;;;5057009;28;45481;-63
2023/05/28 05:09:16;;;;;;;;;16.25;14.00;;;;;;;;5057422;28;45361;-62
2023/05/28 05:11:41;;;;;;;;;12.50;12.25;;;;;;;;5057325;28;45359;-63
2023/05/28 05:14:06;;;;;;;;;14.75;13.25;;;;;;;;5057066;28;45660;-63
2023/05/28 05:16:32;;;;;;;;;10.25;9.50;;;;;;;;5055827;28;45433;-63
2023/05/28 05:18:57;;;;;;;;;13.50;12.50;;;;;;;;5056836;28;45432;-63
2023/05/28 05:21:22;;;;;;;;;10.00;10.00;;;;;;;;5056626;28;45450;-63
2023/05/28 05:23:48;;;;;;;;;10.25;10.25;;;;;;;;5056726;28;45302;-63
2023/05/28 05:26:16;;;;;;;;;12.25;11.00;;;;;;;;5056835;28;45481;-63
2023/05/28 05:28:41;;;;;;;;;11.00;11.00;;;;;;;;5056591;28;45491;-63
2023/05/28 05:31:07;;;;;;;;;12.25;11.00;;;;;;;;5056942;28;45721;-63
2023/05/28 05:33:32;;;;;;;;;13.25;11.00;;;;;;;;5056218;28;45501;-63
2023/05/28 05:35:57;;;;;;;;;12.75;11.50;;;;;;;;5056632;28;45503;-64
2023/05/28 05:38:22;;;;;;;;;12.75;11.25;;;;;;;;5056836;28;45371;-63
2023/05/28 05:40:47;;;;;;;;;13.00;13.00;;;;;;;;5056424;28;45497;-63
2023/05/28 05:43:13;;;;;;;;;18.25;13.25;;;;;;;;5056518;28;45744;-63
2023/05/28 05:45:38;;;;;;;;;12.50;11.50;;;;;;;;5056716;28;45670;-63
2023/05/28 05:48:03;;;;;;;;;12.50;12.50;;;;;;;;5056814;28;45389;-63
2023/05/28 05:50:28;;;;;;;;;13.00;11.00;;;;;;;;5056238;28;45514;-63
2023/05/28 05:52:54;;;;;;;;;11.00;11.00;;;;;;;;5056472;28;46413;-63
2023/05/28 05:55:20;;;;;;;;;12.25;12.25;;;;;;;;5056383;28;45348;-63
2023/05/28 05:57:45;;;;;;;;;15.25;11.75;;;;;;;;5056295;28;45373;-63
2023/05/28 06:00:11;;;;;;;;;14.25;13.00;;;;;;;;5056448;28;45480;-63
2023/05/28 06:02:37;;;;;;;;;13.00;13.00;;;;;;;;5055943;28;46234;-63
2023/05/28 06:05:03;;;;;;;;;3.00;3.00;;;;;;;;5056355;28;45318;-64
2023/05/28 06:07:28;;;;;;;;;16.00;14.75;;;;;;;;5056036;28;45365;-63
2023/05/28 06:09:53;;;;;;;;;22.00;13.75;;;;;;;;5056313;28;45281;-63
2023/05/28 06:12:19;;;;;;;;;14.00;13.25;;;;;;;;5055599;28;46903;-63
2023/05/28 06:14:44;;;;;;;;;12.75;12.25;;;;;;;;5055740;28;45262;-64
2023/05/28 06:17:10;;;;;;;;;13.00;12.50;;;;;;;;5055950;28;45382;-64
2023/05/28 06:19:35;;;;;;;;;12.75;11.50;;;;;;;;5056311;28;45445;-63
2023/05/28 06:22:00;;;;;;;;;15.25;11.00;;;;;;;;5055386;28;47421;-63
2023/05/28 06:24:25;;;;;;;;;16.25;14.75;;;;;;;;5055455;28;45402;-64
2023/05/28 06:26:51;;;;;;;;;13.75;12.75;;;;;;;;5055663;28;45450;-64
2023/05/28 06:29:16;;;;;;;;;16.00;12.25;;;;;;;;5055472;28;45386;-63
2023/05/28 06:31:41;;;;;;;;;10.50;8.75;;;;;;;;5055671;28;45366;-63
2023/05/28 06:34:07;;;;;;;;;16.25;12.50;;;;;;;;5055100;28;45429;-64
2023/05/28 06:36:32;;;;;;;;;14.50;14.00;;;;;;;;5056096;28;45402;-64
2023/05/28 06:38:57;;;;;;;;;10.75;10.25;;;;;;;;5055658;28;45441;-64
2023/05/28 06:41:22;;;;;;;;;14.75;13.50;;;;;;;;5053456;28;47325;-64
2023/05/28 06:43:47;;;;;;;;;15.00;10.50;;;;;;;;5054174;28;46041;-62
2023/05/28 06:46:13;;;;;;;;;13.25;9.25;;;;;;;;5055569;28;45304;-62
2023/05/28 06:48:38;;;;;;;;;11.25;11.25;;;;;;;;5055617;28;45522;-62
2023/05/28 06:51:04;;;;;;;;;14.50;14.00;;;;;;;;5053293;28;45533;-62
2023/05/28 06:53:29;;;;;;;;;15.00;12.75;;;;;;;;5054763;28;45394;-62
2023/05/28 06:55:55;;;;;;;;;14.00;12.75;;;;;;;;5055793;28;45324;-62
2023/05/28 06:58:20;;;;;;;;;15.00;13.00;;;;;;;;5055391;28;45478;-64
2023/05/28 07:00:45;;;;;;;;;14.50;13.25;;;;;;;;5055128;28;45387;-64
2023/05/28 07:03:11;;;;;;;;;13.75;12.75;;;;;;;;5054278;28;45375;-64
2023/05/28 07:05:36;;;;;;;;;16.50;13.00;;;;;;;;5055385;28;45593;-63
2023/05/28 07:08:01;;;;;;;;;13.75;12.50;;;;;;;;5055291;28;45377;-64
2023/05/28 07:10:27;;;;;;;;;14.75;12.50;;;;;;;;5053024;28;47090;-64
2023/05/28 07:12:52;;;;;;;;;18.25;13.75;;;;;;;;5054875;28;45320;-64
2023/05/28 07:15:17;;;;;;;;;13.25;11.00;;;;;;;;5055342;28;45525;-65
2023/05/28 07:17:42;;;;;;;;;10.50;10.50;;;;;;;;5055140;28;45347;-65
2023/05/28 07:20:08;;;;;;;;;11.00;11.00;;;;;;;;5054695;28;46430;-64
2023/05/28 07:22:33;;;;;;;;;10.75;10.25;;;;;;;;5054997;28;45351;-64
2023/05/28 07:24:59;;;;;;;;;16.00;14.25;;;;;;;;5055222;28;45426;-65
2023/05/28 07:27:24;;;;;;;;;15.75;10.50;;;;;;;;5055061;28;45430;-65
2023/05/28 07:29:49;;;;;;;;;11.50;11.00;;;;;;;;5054910;28;46060;-64
2023/05/28 07:32:15;;;;;;;;;11.25;11.25;;;;;;;;5054630;28;45510;-63
2023/05/28 07:34:41;;;;;;;;;11.75;9.75;;;;;;;;5055023;28;45507;-65
2023/05/28 07:37:06;;;;;;;;;13.25;10.00;;;;;;;;5054755;28;45516;-65
2023/05/28 07:39:32;;;;;;;;;10.75;10.50;;;;;;;;5054966;28;47360;-64
2023/05/28 07:41:57;;;;;;;;;12.00;10.25;;;;;;;;5054536;28;45304;-63
2023/05/28 07:44:22;;;;;;;;;17.50;10.75;;;;;;;;5055114;28;45454;-64
2023/05/28 07:46:47;;;;;;;;;12.25;10.00;;;;;;;;5055236;28;45386;-64
2023/05/28 07:49:12;;;;;;;;;10.75;10.50;;;;;;;;5054680;28;45499;-64
2023/05/28 07:51:38;;;;;;;;;11.50;11.50;;;;;;;;5053654;28;45779;-64
2023/05/28 07:54:03;;;;;;;;;14.00;10.50;;;;;;;;5058435;28;45385;-64
2023/05/28 07:56:28;;;;;;;;;13.00;10.25;;;;;;;;5058192;28;45441;-64
2023/05/28 07:58:53;;;;;;;;;11.00;10.75;;;;;;;;5058254;28;46368;-63
2023/05/28 08:01:20;;;;;;;;;9.75;9.75;;;;;;;;5058489;28;45390;-64
2023/05/28 08:03:50;;;;;;;;;9.75;9.00;;;;;;;;5058676;28;45417;-64
2023/05/28 08:06:15;;;;;;;;;7.50;6.75;;;;;;;;5058287;28;45549;-64
2023/05/28 08:08:41;;;;;;;;;8.00;6.75;;;;;;;;5056475;28;46176;-64
2023/05/28 08:11:06;;;;;;;;;9.25;9.00;;;;;;;;5057731;28;45441;-64
2023/05/28 08:13:31;;;;;;;;;10.00;9.50;;;;;;;;5056924;28;45409;-64
2023/05/28 08:15:58;;;;;;;;;9.75;9.00;;;;;;;;5057903;28;45621;-64
2023/05/28 08:18:24;;;;;;;;;8.75;7.75;;;;;;;;5056362;28;46287;-64
2023/05/28 08:20:49;;;;;;;;;9.00;8.00;;;;;;;;5057310;28;45410;-65
2023/05/28 08:23:14;;;;;;;;;9.00;9.00;;;;;;;;5056277;28;45410;-64
2023/05/28 08:25:39;;;;;;;;;10.00;8.25;;;;;;;;5057242;28;45423;-64
2023/05/28 08:28:05;;;;;;;;;6.75;6.75;;;;;;;;5057300;28;45453;-64
2023/05/28 08:30:31;;;;;;;;;7.75;7.75;;;;;;;;5056185;28;45394;-64
2023/05/28 08:32:56;;;;;;;;;5.25;5.25;;;;;;;;5057020;28;45358;-65
2023/05/28 08:35:21;;;;;;;;;9.25;7.00;;;;;;;;5057166;28;45443;-64
2023/05/28 08:37:49;;;;;;;;;6.25;6.25;;;;;;;;5056926;28;45375;-64
2023/05/28 08:40:14;;;;;;;;;9.50;9.50;;;;;;;;5057007;28;45500;-64
2023/05/28 08:42:39;;;;;;;;;9.25;7.50;;;;;;;;5055784;28;45516;-64
2023/05/28 08:45:05;;;;;;;;;7.25;5.25;;;;;;;;5057148;28;45444;-64
2023/05/28 08:47:33;;;;;;;;;10.00;8.50;;;;;;;;5056565;28;46185;-64
2023/05/28 08:50:01;;;;;;;;;13.25;11.25;;;;;;;;5056755;28;45473;-65
2023/05/28 08:52:28;;;;;;;;;8.25;7.25;;;;;;;;5057081;28;45346;-64
2023/05/28 08:54:53;;;;;;;;;5.50;5.00;;;;;;;;5056527;28;45300;-64
2023/05/28 08:57:20;;;;;;;;;4.00;1.75;;;;;;;;5056640;28;45379;-65
2023/05/28 08:59:47;;;;;;;;;6.25;6.25;;;;;;;;5056641;28;45388;-64
2023/05/28 09:02:12;;;;;;;;;9.00;7.50;;;;;;;;5057197;28;45453;-65
2023/05/28 09:04:37;;;;;;;;;9.50;8.50;;;;;;;;5055824;28;45400;-64
2023/05/28 09:07:03;;;;;;;;;6.25;5.25;;;;;;;;5057116;28;45531;-64
2023/05/28 09:09:29;;;;;;;;;6.75;6.00;;;;;;;;5057055;28;45400;-65
2023/05/28 09:12:12;;;;;;;;;8.50;8.50;;;;;;;;5056807;28;45463;-64
2023/05/28 09:14:39;;;;;;;;;6.75;6.50;;;;;;;;5056330;28;45408;-65
2023/05/28 09:17:04;;;;;;;;;12.75;8.00;;;;;;;;5056935;28;45527;-64
2023/05/28 09:19:31;;;;;;;;;14.00;11.00;;;;;;;;5056679;28;45399;-64
2023/05/28 09:22:01;;;;;;;;;6.00;6.00;;;;;;;;5057037;28;45434;-65
2023/05/28 09:24:26;;;;;;;;;12.75;10.75;;;;;;;;5055980;28;45517;-65
2023/05/28 09:26:54;;;;;;;;;9.50;7.75;;;;;;;;5056270;28;47141;-65
2023/05/28 09:29:19;;;;;;;;;5.75;5.25;;;;;;;;5056739;28;45384;-65
2023/05/28 09:31:54;;;;;;;;;8.00;6.75;;;;;;;;5056872;28;45405;-65
2023/05/28 09:34:19;;;;;;;;;6.75;6.75;;;;;;;;5055468;28;45619;-65
2023/05/28 09:36:44;;;;;;;;;9.00;6.75;;;;;;;;5056412;28;45416;-65
2023/05/28 09:39:10;;;;;;;;;11.25;9.00;;;;;;;;5056708;28;45378;-65
2023/05/28 09:41:36;;;;;;;;;6.00;6.00;;;;;;;;5056527;28;45454;-65
2023/05/28 09:44:02;;;;;;;;;7.00;7.00;;;;;;;;5056666;28;45463;-65
2023/05/28 09:46:28;;;;;;;;;10.25;10.25;;;;;;;;5056026;28;47296;-65
2023/05/28 09:48:53;;;;;;;;;10.75;10.50;;;;;;;;5055488;28;45373;-65
2023/05/28 09:51:20;;;;;;;;;14.75;12.50;;;;;;;;5056301;28;45473;-65
2023/05/28 09:53:46;;;;;;;;;13.00;10.00;;;;;;;;5055809;28;45513;-64
2023/05/28 09:56:12;;;;;;;;;9.00;9.00;;;;;;;;5055920;28;45640;-64
2023/05/28 09:58:39;;;;;;;;;9.00;8.00;;;;;;;;5056103;28;45411;-65
2023/05/28 10:01:07;;;;;;;;;6.50;6.50;;;;;;;;5056394;28;45441;-64
2023/05/28 10:03:42;;;;;;;;;5.75;5.75;;;;;;;;5056333;28;45435;-64
2023/05/28 10:06:11;;;;;;;;;13.50;12.25;;;;;;;;5055903;28;46107;-65
2023/05/28 10:08:37;;;;;;;;;33.75;31.00;;;;;;;;5055863;28;45407;-64
2023/05/28 10:11:02;;;;;;;;;10.00;9.00;;;;;;;;5055904;28;45385;-65
2023/05/28 10:13:28;;;;;;;;;8.50;8.50;;;;;;;;5056008;28;45391;-64
2023/05/28 10:15:53;;;;;;;;;11.50;11.25;;;;;;;;5055906;28;46733;-64
2023/05/28 10:18:19;;;;;;;;;13.50;13.50;;;;;;;;5054506;28;45520;-64
2023/05/28 10:20:46;;;;;;;;;8.50;8.50;;;;;;;;5055859;28;45340;-64
2023/05/28 10:23:12;;;;;;;;;8.75;8.75;;;;;;;;5055622;28;45378;-65
2023/05/28 10:25:37;;;;;;;;;6.25;6.25;;;;;;;;5055637;28;45359;-66
2023/05/28 10:28:03;;;;;;;;;8.00;5.50;;;;;;;;5054914;28;45458;-65
2023/05/28 10:30:31;;;;;;;;;9.75;7.00;;;;;;;;5045954;28;45407;-65
2023/05/28 10:32:56;;;;;;;;;8.00;7.00;;;;;;;;5044725;28;45509;-65
2023/05/28 10:35:22;;;;;;;;;5.00;5.00;;;;;;;;5046200;28;47121;-65
2023/05/28 10:37:47;;;;;;;;;5.00;5.00;;;;;;;;5038200;28;47149;-65
2023/05/28 10:40:21;;;;;;;;;6.50;5.25;;;;;;;;5046397;28;45411;-65
2023/05/28 10:42:46;;;;;;;;;6.00;6.00;;;;;;;;5046359;28;45540;-64
2023/05/28 10:45:12;;;;;;;;;5.00;5.00;;;;;;;;5047903;28;45664;-65
2023/05/28 10:47:41;;;;;;;;;6.00;6.00;;;;;;;;5050056;28;45770;-65
2023/05/28 10:50:09;;;;;;;;;7.75;7.00;;;;;;;;5051760;28;45443;-65
2023/05/28 10:52:35;;;;;;;;;8.50;8.00;;;;;;;;5053384;28;45561;-65
2023/05/28 10:55:08;;;;;;;;;7.25;5.75;;;;;;;;5046411;28;47271;-65
2023/05/28 10:57:46;;;;;;;;;9.75;9.25;;;;;;;;5045924;28;45422;-65
2023/05/28 11:00:14;;;;;;;;;6.25;5.50;;;;;;;;5047299;28;45612;-65
2023/05/28 11:02:41;;;;;;;;;9.50;7.25;;;;;;;;5049161;28;45451;-65
2023/05/28 11:05:07;;;;;;;;;5.75;5.50;;;;;;;;5041712;28;47281;-65
2023/05/28 11:07:33;;;;;;;;;7.00;7.00;;;;;;;;5043518;28;45479;-65
2023/05/28 11:09:59;;;;;;;;;15.25;12.50;;;;;;;;5034771;28;45387;-65
2023/05/28 11:12:28;;;;;;;;;8.50;6.00;;;;;;;;5052083;28;45587;-65
2023/05/28 11:14:54;;;;;;;;;12.00;11.00;;;;;;;;5053180;28;46297;-65
2023/05/28 11:17:19;;;;;;;;;8.25;8.00;;;;;;;;5046891;28;45365;-65
2023/05/28 11:19:46;;;;;;;;;8.00;8.00;;;;;;;;5038100;28;45408;-65
2023/05/28 11:22:11;;;;;;;;;5.50;5.50;;;;;;;;5053810;28;45259;-64
2023/05/28 11:24:57;;;;;;;;;4.00;4.00;;;;;;;;5053859;28;46399;-64
2023/05/28 11:27:25;;;;;;;;;6.75;6.00;;;;;;;;5043113;28;45365;-65
2023/05/28 11:29:51;;;;;;;;;7.50;6.75;;;;;;;;5052519;28;45664;-65
2023/05/28 11:32:20;;;;;;;;;6.75;6.00;;;;;;;;5047754;28;45631;-64
2023/05/28 11:34:47;;;;;;;;;6.75;4.75;;;;;;;;5050521;28;46236;-65
2023/05/28 11:37:13;;;;;;;;;6.25;6.00;;;;;;;;5038397;28;45414;-65
2023/05/28 11:39:39;;;;;;;;;4.50;4.50;;;;;;;;5034224;28;45371;-64
2023/05/28 11:42:07;;;;;;;;;9.00;7.25;;;;;;;;5034283;28;45568;-65
2023/05/28 11:44:32;;;;;;;;;4.00;4.00;;;;;;;;5043202;28;45555;-64
2023/05/28 11:46:58;;;;;;;;;5.25;4.75;;;;;;;;5070956;28;46234;-64
2023/05/28 11:49:23;;;;;;;;;5.50;4.25;;;;;;;;5066359;28;45501;-65
2023/05/28 11:51:52;;;;;;;;;5.75;4.25;;;;;;;;5064601;28;45555;-65
2023/05/28 11:54:17;;;;;;;;;9.00;6.25;;;;;;;;5056609;27;47506;-64
2023/05/28 11:56:42;;;;;;;;;6.25;6.25;;;;;;;;5070918;28;45355;-64
2023/05/28 11:59:09;;;;;;;;;5.25;5.25;;;;;;;;5058776;28;45379;-64
2023/05/28 12:01:34;;;;;;;;;5.00;5.00;;;;;;;;5064870;28;45390;-65
2023/05/28 12:04:06;;;;;;;;;4.25;4.00;;;;;;;;5052814;28;46148;-65
2023/05/28 12:06:35;;;;;;;;;6.75;6.50;;;;;;;;5069825;28;45751;-64
2023/05/28 12:09:07;;;;;;;;;7.50;6.50;;;;;;;;5057495;27;45482;-64
2023/05/28 12:11:32;;;;;;;;;4.25;4.25;;;;;;;;5066561;28;45409;-65
2023/05/28 12:14:07;;;;;;;;;10.00;5.25;;;;;;;;5050581;27;46114;-64
2023/05/28 12:16:41;;;;;;;;;8.50;8.50;;;;;;;;5070296;28;45381;-64
2023/05/28 12:19:13;;;;;;;;;8.25;8.25;;;;;;;;5042117;28;45413;-65
2023/05/28 12:21:38;;;;;;;;;8.00;8.00;;;;;;;;5062904;27;45548;-64
2023/05/28 12:24:13;;;;;;;;;3.00;3.00;;;;;;;;5071140;27;45452;-65
2023/05/28 12:26:39;;;;;;;;;5.00;5.00;;;;;;;;5055773;28;45405;-64
2023/05/28 12:29:04;;;;;;;;;18.25;18.25;;;;;;;;5050567;27;45425;-64
2023/05/28 12:31:29;;;;;;;;;8.00;8.00;;;;;;;;5059452;28;45371;-64
2023/05/28 12:33:54;;;;;;;;;23.75;20.00;;;;;;;;5063938;28;45762;-64
2023/05/28 12:36:20;;;;;;;;;15.25;15.25;;;;;;;;5056745;27;45710;-64
2023/05/28 12:38:45;;;;;;;;;6.00;6.00;;;;;;;;5049322;28;45329;-66
2023/05/28 12:41:10;;;;;;;;;4.00;4.00;;;;;;;;5069043;27;45578;-65
2023/05/28 12:43:35;;;;;;;;;7.00;6.00;;;;;;;;5053513;28;45522;-65
2023/05/28 12:46:01;;;;;;;;;2.50;2.50;;;;;;;;5041867;28;45395;-63
2023/05/28 12:48:26;;;;;;;;;1.50;1.50;;;;;;;;5043497;28;45922;-65
2023/05/28 12:50:51;;;;;;;;;7.00;5.00;;;;;;;;5055908;28;45657;-64
2023/05/28 12:53:16;;;;;;;;;2.75;2.75;;;;;;;;5064603;28;47469;-64
2023/05/28 12:55:41;;;;;;;;;6.00;4.50;;;;;;;;5066716;28;45472;-64
2023/05/28 12:58:07;;;;;;;;;4.75;4.50;;;;;;;;5053146;27;45554;-64
2023/05/28 13:00:32;;;;;;;;;5.50;5.50;;;;;;;;5052806;28;45348;-64
2023/05/28 13:02:57;;;;;;;;;8.75;8.75;;;;;;;;5070604;28;45421;-64
2023/05/28 13:05:22;;;;;;;;;6.25;4.00;;;;;;;;5049765;28;45381;-64
2023/05/28 13:07:48;;;;;;;;;6.00;6.00;;;;;;;;5042308;28;45446;-64
2023/05/28 13:10:13;;;;;;;;;6.25;5.25;;;;;;;;5051730;28;45383;-64
2023/05/28 13:12:38;;;;;;;;;6.50;4.00;;;;;;;;5048980;28;46369;-64
2023/05/28 13:15:07;;;;;;;;;4.25;4.25;;;;;;;;5032584;28;46531;-64
2023/05/28 13:17:33;;;;;;;;;5.25;4.00;;;;;;;;5056202;28;45539;-64
2023/05/28 13:19:58;;;;;;;;;5.50;4.00;;;;;;;;5033551;28;45466;-64
2023/05/28 13:22:23;;;;;;;;;4.25;3.25;;;;;;;;5048850;28;45827;-65
2023/05/28 13:24:49;;;;;;;;;3.25;3.25;;;;;;;;5044906;28;45537;-64
2023/05/28 13:27:14;;;;;;;;;3.50;3.00;;;;;;;;5054876;28;45422;-65
2023/05/28 13:29:40;;;;;;;;;3.00;3.00;;;;;;;;5044877;28;45528;-65
2023/05/28 13:32:05;;;;;;;;;4.50;3.50;;;;;;;;5052186;28;46208;-65
2023/05/28 13:34:30;;;;;;;;;5.50;4.25;;;;;;;;5052913;28;45410;-65
2023/05/28 13:36:55;;;;;;;;;4.75;4.75;;;;;;;;5044917;28;45993;-64
2023/05/28 13:39:21;;;;;;;;;4.00;3.50;;;;;;;;5053584;28;45489;-64
2023/05/28 13:41:47;;;;;;;;;3.25;3.25;;;;;;;;5053266;28;47218;-65
2023/05/28 13:44:13;;;;;;;;;3.25;3.25;;;;;;;;5055718;28;45541;-65
2023/05/28 13:46:38;;;;;;;;;2.75;2.75;;;;;;;;5055823;28;45274;-65
2023/05/28 13:49:03;;;;;;;;;4.00;3.00;;;;;;;;5056121;28;45467;-64
2023/05/28 13:51:29;;;;;;;;;3.50;3.50;;;;;;;;5053690;28;45507;-64
2023/05/28 13:53:54;;;;;;;;;3.50;3.00;;;;;;;;5036667;28;45453;-64
2023/05/28 13:56:19;;;;;;;;;6.00;3.50;;;;;;;;5044692;28;45670;-64
2023/05/28 13:58:45;;;;;;;;;5.25;4.25;;;;;;;;5035721;28;45561;-65
2023/05/28 14:01:10;;;;;;;;;4.00;4.00;;;;;;;;5035618;28;46271;-64
2023/05/28 14:03:36;;;;;;;;;5.75;4.50;;;;;;;;5036929;28;45843;-64
2023/05/28 14:06:01;;;;;;;;;3.25;3.25;;;;;;;;5040273;28;45411;-64
2023/05/28 14:08:26;;;;;;;;;5.25;5.00;;;;;;;;5055606;27;45306;-64
2023/05/28 14:10:52;;;;;;;;;3.00;2.00;;;;;;;;5043328;28;45625;-64
2023/05/28 14:13:17;;;;;;;;;5.25;4.25;;;;;;;;5055533;28;45420;-64
2023/05/28 14:15:42;;;;;;;;;4.50;3.50;;;;;;;;5037752;28;45399;-64
2023/05/28 14:18:07;;;;;;;;;5.50;4.00;;;;;;;;5034259;28;45411;-64
2023/05/28 14:20:34;;;;;;;;;4.00;2.75;;;;;;;;5045742;28;46680;-64
2023/05/28 14:23:00;;;;;;;;;3.75;2.25;;;;;;;;5051675;28;45328;-65
2023/05/28 14:25:25;;;;;;;;;4.25;4.25;;;;;;;;5043229;28;45864;-65